createdAt,value
2019-05-14T00:01:23.585Z,2.50
2019-05-14T00:03:31.696Z,2.70
2019-05-14T00:05:37.796Z,2.27
2019-05-14T00:07:42.819Z,2.33
2019-05-14T00:09:51.732Z,2.20
2019-05-14T00:11:59.197Z,2.27
2019-05-14T00:14:04.514Z,2.47
2019-05-14T00:16:14.397Z,2.30
2019-05-14T00:18:22.611Z,2.47
2019-05-14T00:20:31.416Z,2.40
2019-05-14T00:22:37.137Z,2.13
2019-05-14T00:24:42.443Z,2.27
2019-05-14T00:26:48.343Z,2.10
2019-05-14T00:28:55.254Z,2.27
2019-05-14T00:31:02.618Z,2.10
2019-05-14T00:33:11.898Z,2.20
2019-05-14T00:35:18.508Z,2.13
2019-05-14T00:37:26.477Z,2.13
2019-05-14T00:39:32.099Z,2.20
2019-05-14T00:41:39.148Z,2.30
2019-05-14T00:43:44.736Z,2.43
2019-05-14T00:45:51.845Z,2.27
2019-05-14T00:47:57.626Z,2.57
2019-05-14T00:50:05.605Z,2.83
2019-05-14T00:52:11.800Z,2.17
2019-05-14T00:54:18.834Z,2.30
2019-05-14T00:56:25.056Z,2.43
2019-05-14T00:58:32.149Z,2.10
2019-05-14T01:00:41.831Z,2.00
2019-05-14T01:02:51.803Z,2.07
2019-05-14T01:04:56.808Z,2.20
2019-05-14T01:07:01.986Z,2.10
2019-05-14T01:09:06.712Z,2.33
2019-05-14T01:11:12.848Z,2.43
2019-05-14T01:13:18.688Z,2.00
2019-05-14T01:15:27.905Z,2.40
2019-05-14T01:17:33.232Z,2.50
2019-05-14T01:19:38.208Z,2.40
2019-05-14T01:21:44.018Z,2.33
2019-05-14T01:23:51.405Z,2.47
2019-05-14T01:25:57.428Z,2.30
2019-05-14T01:28:03.394Z,2.20
2019-05-14T01:30:08.651Z,2.27
2019-05-14T01:32:14.915Z,2.20
2019-05-14T01:34:21.586Z,2.53
2019-05-14T01:36:26.837Z,2.13
2019-05-14T01:38:31.828Z,2.37
2019-05-14T01:40:38.645Z,2.40
2019-05-14T01:42:44.544Z,2.20
2019-05-14T01:44:51.699Z,2.33
2019-05-14T01:46:56.469Z,2.00
2019-05-14T01:49:02.425Z,2.20
2019-05-14T01:51:07.640Z,2.40
2019-05-14T01:53:13.391Z,2.30
2019-05-14T01:55:19.258Z,2.23
2019-05-14T01:57:24.430Z,2.30
2019-05-14T01:59:31.941Z,2.33
2019-05-14T02:01:36.219Z,2.30
2019-05-14T02:03:43.849Z,2.60
2019-05-14T02:05:48.696Z,2.27
2019-05-14T02:07:54.505Z,2.37
2019-05-14T02:10:01.174Z,2.13
2019-05-14T02:12:11.447Z,2.40
2019-05-14T02:14:15.607Z,2.20
2019-05-14T02:16:22.215Z,2.30
2019-05-14T02:18:28.068Z,2.27
2019-05-14T02:20:32.888Z,2.30
2019-05-14T02:22:37.716Z,2.00
2019-05-14T02:24:42.504Z,2.40
2019-05-14T02:26:47.657Z,2.07
2019-05-14T02:28:53.728Z,2.20
2019-05-14T02:31:03.140Z,2.23
2019-05-14T02:33:09.117Z,2.00
2019-05-14T02:35:12.258Z,2.30
2019-05-14T02:37:19.420Z,1.90
2019-05-14T02:39:24.545Z,1.97
2019-05-14T02:41:30.656Z,1.93
2019-05-14T02:43:40.781Z,2.27
2019-05-14T02:46:02.068Z,2.30
2019-05-14T02:47:53.765Z,1.90
2019-05-14T02:49:59.504Z,2.10
2019-05-14T02:52:04.307Z,1.90
2019-05-14T02:54:09.842Z,2.10
2019-05-14T02:56:16.107Z,2.17
2019-05-14T02:58:21.271Z,2.30
2019-05-14T03:00:31.110Z,2.10
2019-05-14T03:02:40.413Z,2.37
2019-05-14T03:04:46.241Z,1.97
2019-05-14T03:06:51.785Z,2.10
2019-05-14T03:08:59.718Z,2.20
2019-05-14T03:11:03.615Z,1.90
2019-05-14T03:13:11.815Z,2.00
2019-05-14T03:15:20.075Z,1.90
2019-05-14T03:17:24.492Z,2.30
2019-05-14T03:19:29.928Z,2.23
2019-05-14T03:21:34.884Z,1.90
2019-05-14T03:23:40.753Z,1.80
2019-05-14T03:25:49.267Z,2.30
2019-05-14T03:27:54.463Z,2.00
2019-05-14T03:30:01.577Z,2.20
2019-05-14T03:32:13.140Z,2.03
2019-05-14T03:34:21.866Z,2.10
2019-05-14T03:36:27.002Z,1.77
2019-05-14T03:38:33.805Z,1.73
2019-05-14T03:40:40.150Z,2.03
2019-05-14T03:42:49.076Z,2.07
2019-05-14T03:44:54.337Z,1.90
2019-05-14T03:47:04.614Z,1.80
2019-05-14T03:49:09.262Z,1.90
2019-05-14T03:51:13.789Z,1.70
2019-05-14T03:53:20.161Z,1.90
2019-05-14T03:55:28.993Z,2.03
2019-05-14T03:57:32.787Z,1.70
2019-05-14T03:59:40.224Z,1.90
2019-05-14T04:01:50.705Z,1.90
2019-05-14T04:03:54.630Z,1.90
2019-05-14T04:06:01.337Z,1.80
2019-05-14T04:08:09.701Z,1.90
2019-05-14T04:10:14.586Z,1.90
2019-05-14T04:12:20.681Z,1.70
2019-05-14T04:14:29.173Z,1.93
2019-05-14T04:16:34.903Z,1.60
2019-05-14T04:18:43.798Z,1.90
2019-05-14T04:20:52.025Z,1.93
2019-05-14T04:23:00.031Z,1.50
2019-05-14T04:25:10.906Z,2.07
2019-05-14T04:27:20.322Z,1.60
2019-05-14T04:29:30.663Z,1.70
2019-05-14T04:31:38.928Z,2.20
2019-05-14T04:33:49.566Z,1.80
2019-05-14T04:36:00.262Z,1.80
2019-05-14T04:38:09.633Z,2.07
2019-05-14T04:40:18.705Z,1.77
2019-05-14T04:42:22.366Z,1.97
2019-05-14T04:44:29.779Z,1.60
2019-05-14T04:46:39.181Z,1.93
2019-05-14T04:48:45.646Z,1.80
2019-05-14T04:50:50.928Z,1.50
2019-05-14T04:52:56.080Z,1.80
2019-05-14T04:55:02.173Z,1.50
2019-05-14T04:57:10.239Z,1.50
2019-05-14T04:59:19.016Z,1.70
2019-05-14T05:01:23.896Z,1.43
2019-05-14T05:03:31.328Z,1.67
2019-05-14T05:05:39.366Z,1.40
2019-05-14T05:07:48.951Z,1.70
2019-05-14T05:09:52.645Z,1.90
2019-05-14T05:12:00.559Z,1.87
2019-05-14T05:14:08.861Z,1.60
2019-05-14T05:16:14.797Z,1.70
2019-05-14T05:18:23.898Z,1.97
2019-05-14T05:20:29.937Z,2.03
2019-05-14T05:22:35.916Z,1.67
2019-05-14T05:24:42.464Z,2.20
2019-05-14T05:26:48.836Z,1.80
2019-05-14T05:29:03.726Z,2.27
2019-05-14T05:31:02.197Z,2.10
2019-05-14T05:33:09.657Z,2.23
2019-05-14T05:35:18.469Z,2.40
2019-05-14T05:37:23.977Z,2.07
2019-05-14T05:39:29.864Z,2.30
2019-05-14T05:41:38.318Z,2.10
2019-05-14T05:43:43.865Z,1.90
2019-05-14T05:45:50.255Z,1.77
2019-05-14T05:48:01.742Z,1.90
2019-05-14T05:50:08.735Z,2.00
2019-05-14T05:52:16.145Z,2.03
2019-05-14T05:54:24.329Z,2.03
2019-05-14T05:56:33.078Z,1.60
2019-05-14T05:58:39.838Z,1.90
2019-05-14T06:00:50.305Z,2.10
2019-05-14T06:02:59.080Z,2.00
2019-05-14T06:05:04.744Z,2.30
2019-05-14T06:07:10.113Z,2.07
2019-05-14T06:09:18.269Z,1.80
2019-05-14T06:11:23.658Z,1.63
2019-05-14T06:13:30.202Z,1.90
2019-05-14T06:15:45.556Z,1.80
2019-05-14T06:17:49.206Z,2.00
2019-05-14T06:19:59.099Z,2.00
2019-05-14T06:22:09.751Z,2.10
2019-05-14T06:24:15.812Z,2.00
2019-05-14T06:26:22.170Z,1.80
2019-05-14T06:28:33.293Z,1.50
2019-05-14T06:30:39.558Z,1.73
2019-05-14T06:32:48.710Z,1.97
2019-05-14T06:34:54.704Z,2.00
2019-05-14T06:37:01.832Z,1.83
2019-05-14T06:39:11.004Z,2.00
2019-05-14T06:41:19.422Z,1.77
2019-05-14T06:43:28.783Z,1.57
2019-05-14T06:45:34.806Z,1.63
2019-05-14T06:47:41.311Z,1.70
2019-05-14T06:49:49.006Z,1.70
2019-05-14T06:51:54.367Z,1.67
2019-05-14T06:54:03.148Z,1.60
2019-05-14T06:56:13.282Z,1.90
2019-05-14T06:58:20.473Z,1.70
2019-05-14T07:00:28.910Z,1.83
2019-05-14T07:02:43.748Z,1.80
2019-05-14T07:04:48.399Z,1.90
2019-05-14T07:06:58.982Z,1.50
2019-05-14T07:09:09.925Z,1.80
2019-05-14T07:11:18.890Z,1.80
2019-05-14T07:13:23.935Z,2.03
2019-05-14T07:15:29.484Z,1.77
2019-05-14T07:17:39.828Z,1.70
2019-05-14T07:19:49.143Z,1.73
2019-05-14T07:21:53.913Z,1.70
2019-05-14T07:24:01.583Z,2.17
2019-05-14T07:26:10.105Z,1.80
2019-05-14T07:28:19.299Z,1.97
2019-05-14T07:30:24.677Z,1.53
2019-05-14T07:32:30.458Z,1.50
2019-05-14T07:34:38.894Z,1.50
2019-05-14T07:36:46.076Z,1.70
2019-05-14T07:38:50.777Z,1.50
2019-05-14T07:40:58.634Z,1.80
2019-05-14T07:43:08.830Z,1.90
2019-05-14T07:45:13.739Z,1.80
2019-05-14T07:47:20.221Z,1.70
2019-05-14T07:49:29.074Z,1.70
2019-05-14T07:51:39.583Z,1.67
2019-05-14T07:53:48.848Z,1.50
2019-05-14T07:55:55.305Z,1.67
2019-05-14T07:58:01.849Z,1.50
2019-05-14T08:00:08.589Z,1.30
2019-05-14T08:02:15.510Z,1.57
2019-05-14T08:04:22.117Z,1.70
2019-05-14T08:06:28.424Z,1.70
2019-05-14T08:08:38.264Z,1.70
2019-05-14T08:10:45.197Z,1.60
2019-05-14T08:12:55.118Z,1.70
2019-05-14T08:15:15.239Z,1.47
2019-05-14T08:17:13.013Z,1.53
2019-05-14T08:19:26.572Z,1.70
2019-05-14T08:21:28.406Z,1.60
2019-05-14T08:23:35.557Z,1.60
2019-05-14T08:25:42.925Z,1.70
2019-05-14T08:27:51.013Z,1.70
2019-05-14T08:30:00.394Z,1.53
2019-05-14T08:32:08.836Z,1.70
2019-05-14T08:34:15.157Z,1.70
2019-05-14T08:36:20.592Z,1.60
2019-05-14T08:38:28.288Z,1.60
2019-05-14T08:40:35.055Z,1.70
2019-05-14T08:42:42.825Z,1.53
2019-05-14T08:44:51.353Z,1.50
2019-05-14T08:47:00.206Z,1.60
2019-05-14T08:49:08.889Z,1.60
2019-05-14T08:51:18.485Z,1.50
2019-05-14T08:53:23.248Z,1.63
2019-05-14T08:55:29.643Z,1.60
2019-05-14T08:57:38.753Z,1.27
2019-05-14T08:59:44.704Z,1.50
2019-05-14T09:02:01.713Z,1.50
2019-05-14T09:04:00.721Z,1.50
2019-05-14T09:06:09.221Z,1.20
2019-05-14T09:08:15.956Z,1.40
2019-05-14T09:10:22.030Z,1.50
2019-05-14T09:12:29.720Z,1.30
2019-05-14T09:14:39.277Z,1.70
2019-05-14T09:16:47.690Z,1.50
2019-05-14T09:18:54.176Z,1.63
2019-05-14T09:21:01.316Z,1.40
2019-05-14T09:23:09.278Z,1.40
2019-05-14T09:25:18.760Z,1.40
2019-05-14T09:27:25.026Z,1.40
2019-05-14T09:29:58.978Z,1.60
2019-05-14T09:32:09.626Z,1.50
2019-05-14T09:34:15.418Z,1.30
2019-05-14T09:36:23.885Z,1.50
2019-05-14T09:38:29.322Z,1.30
2019-05-14T09:40:39.445Z,1.50
2019-05-14T09:42:50.023Z,1.40
2019-05-14T09:44:55.161Z,1.40
2019-05-14T09:47:08.451Z,1.50
2019-05-14T09:49:13.433Z,1.60
2019-05-14T09:51:19.191Z,1.47
2019-05-14T09:53:28.679Z,1.40
2019-05-14T09:55:38.686Z,1.40
2019-05-14T09:57:49.117Z,1.30
2019-05-14T09:59:56.024Z,1.60
2019-05-14T10:02:02.209Z,1.50
2019-05-14T10:04:10.896Z,1.50
2019-05-14T10:06:16.928Z,1.30
2019-05-14T10:08:24.448Z,1.50
2019-05-14T10:10:31.497Z,1.40
2019-05-14T10:12:48.294Z,1.57
2019-05-14T10:14:49.226Z,1.20
2019-05-14T10:16:58.295Z,1.50
2019-05-14T10:19:07.392Z,1.30
2019-05-14T10:21:13.607Z,1.40
2019-05-14T10:23:19.521Z,1.30
2019-05-14T10:25:29.505Z,1.30
2019-05-14T10:27:35.277Z,1.30
2019-05-14T10:29:42.102Z,1.50
2019-05-14T10:31:49.021Z,1.30
2019-05-14T10:33:55.297Z,1.27
2019-05-14T10:36:01.016Z,1.13
2019-05-14T10:38:08.743Z,1.27
2019-05-14T10:40:19.486Z,1.50
2019-05-14T10:42:28.948Z,1.30
2019-05-14T10:44:38.496Z,1.20
2019-05-14T10:46:44.723Z,1.27
2019-05-14T10:48:51.182Z,1.13
2019-05-14T10:51:03.263Z,1.20
2019-05-14T10:53:09.000Z,1.10
2019-05-14T10:55:18.722Z,1.20
2019-05-14T10:57:25.966Z,1.20
2019-05-14T10:59:31.676Z,1.10
2019-05-14T11:01:39.111Z,1.07
2019-05-14T11:03:48.229Z,1.10
2019-05-14T11:05:55.956Z,1.20
2019-05-14T11:08:02.079Z,0.97
2019-05-14T11:10:09.174Z,1.10
2019-05-14T11:12:19.006Z,1.17
2019-05-14T11:14:23.910Z,1.10
2019-05-14T11:16:29.459Z,1.30
2019-05-14T11:18:39.962Z,1.30
2019-05-14T11:20:51.046Z,0.97
2019-05-14T11:22:55.183Z,1.00
2019-05-14T11:25:02.627Z,1.20
2019-05-14T11:27:09.269Z,1.30
2019-05-14T11:29:18.549Z,1.10
2019-05-14T11:31:25.338Z,1.00
2019-05-14T11:33:32.895Z,1.20
2019-05-14T11:35:39.639Z,1.10
2019-05-14T11:37:48.370Z,1.00
2019-05-14T11:39:54.920Z,1.20
2019-05-14T11:42:00.572Z,1.20
2019-05-14T11:44:09.590Z,1.20
2019-05-14T11:46:15.656Z,1.30
2019-05-14T11:48:25.593Z,1.20
2019-05-14T11:50:31.840Z,1.30
2019-05-14T11:52:38.936Z,1.33
2019-05-14T11:54:49.210Z,1.40
2019-05-14T11:56:53.427Z,1.50
2019-05-14T11:59:03.515Z,1.30
2019-05-14T12:01:15.078Z,1.37
2019-05-14T12:03:22.195Z,1.50
2019-05-14T12:05:30.498Z,1.30
2019-05-14T12:07:38.963Z,1.20
2019-05-14T12:09:46.482Z,1.30
2019-05-14T12:11:53.118Z,1.37
2019-05-14T12:13:59.829Z,1.20
2019-05-14T12:16:08.568Z,1.60
2019-05-14T12:18:14.361Z,1.53
2019-05-14T12:20:20.862Z,1.60
2019-05-14T12:22:28.621Z,1.47
2019-05-14T12:24:34.062Z,1.70
2019-05-14T12:26:40.609Z,1.60
2019-05-14T12:28:49.444Z,1.60
2019-05-14T12:30:58.393Z,1.80
2019-05-14T12:33:03.841Z,1.87
2019-05-14T12:35:11.263Z,1.30
2019-05-14T12:37:19.702Z,1.73
2019-05-14T12:39:29.382Z,1.57
2019-05-14T12:41:34.362Z,1.70
2019-05-14T12:43:42.046Z,1.70
2019-05-14T12:46:02.802Z,1.70
2019-05-14T12:48:09.762Z,1.50
2019-05-14T12:50:16.660Z,1.70
2019-05-14T12:52:26.069Z,1.30
2019-05-14T12:54:31.909Z,1.30
2019-05-14T12:56:39.195Z,1.50
2019-05-14T12:58:48.805Z,1.67
2019-05-14T13:00:54.017Z,1.50
2019-05-14T13:03:01.083Z,1.63
2019-05-14T13:05:09.015Z,1.57
2019-05-14T13:07:19.565Z,1.47
2019-05-14T13:09:25.157Z,1.47
2019-05-14T13:11:32.617Z,1.60
2019-05-14T13:13:42.811Z,1.70
2019-05-14T13:15:49.778Z,1.63
2019-05-14T13:17:55.233Z,1.50
2019-05-14T13:20:13.129Z,1.57
2019-05-14T13:22:19.023Z,1.50
2019-05-14T13:24:24.438Z,1.33
2019-05-14T13:26:32.405Z,1.50
2019-05-14T13:28:40.490Z,1.83
2019-05-14T13:30:48.665Z,1.47
2019-05-14T13:32:59.193Z,1.47
2019-05-14T13:35:05.066Z,1.77
2019-05-14T13:37:12.037Z,1.53
2019-05-14T13:39:19.387Z,1.23
2019-05-14T13:41:28.542Z,1.40
2019-05-14T13:43:34.851Z,1.47
2019-05-14T13:45:43.333Z,1.50
2019-05-14T13:47:50.951Z,1.53
2019-05-14T13:49:59.522Z,1.40
2019-05-14T13:52:09.109Z,1.80
2019-05-14T13:54:14.698Z,1.20
2019-05-14T13:56:20.977Z,1.50
2019-05-14T13:58:28.609Z,1.47
2019-05-14T14:00:34.302Z,1.63
2019-05-14T14:02:42.011Z,1.60
2019-05-14T14:04:48.371Z,1.60
2019-05-14T14:06:54.966Z,1.70
2019-05-14T14:09:03.696Z,1.50
2019-05-14T14:11:12.977Z,1.67
2019-05-14T14:13:22.615Z,1.50
2019-05-14T14:15:30.515Z,1.50
2019-05-14T14:17:39.070Z,1.40
2019-05-14T14:19:44.956Z,1.40
2019-05-14T14:21:50.133Z,1.40
2019-05-14T14:23:59.331Z,1.63
2019-05-14T14:26:05.805Z,1.40
2019-05-14T14:28:12.399Z,1.40
2019-05-14T14:30:21.209Z,1.10
2019-05-14T14:32:32.102Z,1.27
2019-05-14T14:34:41.249Z,1.40
2019-05-14T14:37:00.820Z,1.67
2019-05-14T14:39:12.536Z,1.37
2019-05-14T14:41:19.751Z,1.47
2019-05-14T14:43:29.667Z,1.63
2019-05-14T14:45:45.497Z,1.60
2019-05-14T14:47:51.257Z,1.27
2019-05-14T14:50:00.369Z,1.30
2019-05-14T14:52:12.192Z,1.40
2019-05-14T14:54:21.257Z,1.30
2019-05-14T14:56:29.147Z,1.63
2019-05-14T14:58:39.153Z,1.53
2019-05-14T15:00:48.798Z,1.50
2019-05-14T15:03:05.335Z,1.60
2019-05-14T15:05:19.912Z,1.40
2019-05-14T15:07:32.994Z,1.47
2019-05-14T15:09:41.081Z,1.20
2019-05-14T15:11:51.187Z,1.30
2019-05-14T15:14:04.448Z,1.17
2019-05-14T15:16:15.883Z,1.30
2019-05-14T15:18:28.838Z,1.30
2019-05-14T15:20:37.985Z,1.37
2019-05-14T15:22:49.045Z,1.20
2019-05-14T15:24:58.577Z,1.37
2019-05-14T15:27:09.295Z,1.33
2019-05-14T15:29:15.736Z,1.40
2019-05-14T15:31:22.799Z,1.57
2019-05-14T15:33:34.582Z,1.20
2019-05-14T15:35:45.482Z,1.33
2019-05-14T15:37:55.530Z,1.40
2019-05-14T15:40:04.761Z,1.33
2019-05-14T15:42:14.209Z,1.90
2019-05-14T15:44:46.422Z,1.73
2019-05-14T15:46:41.727Z,1.83
2019-05-14T15:48:49.074Z,1.60
2019-05-14T15:51:00.136Z,1.70
2019-05-14T15:53:10.900Z,1.90
2019-05-14T15:55:18.435Z,1.70
2019-05-14T15:57:30.422Z,1.80
2019-05-14T15:59:41.368Z,1.80
2019-05-14T16:01:53.423Z,1.60
2019-05-14T16:04:02.136Z,2.37
2019-05-14T16:06:10.650Z,1.90
2019-05-14T16:08:22.200Z,1.87
2019-05-14T16:10:30.527Z,1.70
2019-05-14T16:12:36.042Z,1.50
2019-05-14T16:14:42.515Z,1.77
2019-05-14T16:16:48.654Z,2.43
2019-05-14T16:18:55.761Z,2.20
2019-05-14T16:21:01.954Z,2.00
2019-05-14T16:23:10.933Z,1.90
2019-05-14T16:25:18.954Z,1.97
2019-05-14T16:27:26.042Z,1.87
2019-05-14T16:29:41.780Z,1.80
2019-05-14T16:31:43.651Z,1.67
2019-05-14T16:33:51.309Z,1.97
2019-05-14T16:35:57.984Z,1.70
2019-05-14T16:38:08.173Z,1.80
2019-05-14T16:40:12.764Z,2.00
2019-05-14T16:42:20.632Z,2.17
2019-05-14T16:44:28.502Z,2.10
2019-05-14T16:46:38.692Z,1.73
2019-05-14T16:48:43.743Z,1.60
2019-05-14T16:50:50.985Z,1.57
2019-05-14T16:52:58.902Z,1.70
2019-05-14T16:55:24.571Z,2.00
2019-05-14T16:57:31.405Z,1.73
2019-05-14T16:59:39.625Z,1.50
2019-05-14T17:01:51.698Z,1.87
2019-05-14T17:03:59.575Z,1.73
2019-05-14T17:06:11.573Z,1.57
2019-05-14T17:08:19.765Z,1.70
2019-05-14T17:10:28.639Z,1.70
2019-05-14T17:12:49.637Z,1.73
2019-05-14T17:14:50.801Z,1.80
2019-05-14T17:16:59.337Z,2.00
2019-05-14T17:19:03.866Z,1.60
2019-05-14T17:21:10.807Z,1.90
2019-05-14T17:23:19.830Z,2.50
2019-05-14T17:25:30.557Z,1.90
2019-05-14T17:27:39.934Z,2.30
2019-05-14T17:29:48.588Z,2.00
2019-05-14T17:31:57.681Z,2.10
2019-05-14T17:34:04.827Z,2.53
2019-05-14T17:36:15.093Z,2.00
2019-05-14T17:38:20.651Z,1.90
2019-05-14T17:40:31.195Z,2.10
2019-05-14T17:42:39.864Z,2.00
2019-05-14T17:44:48.289Z,2.20
2019-05-14T17:46:58.830Z,2.10
2019-05-14T17:49:05.171Z,1.97
2019-05-14T17:51:13.365Z,2.80
2019-05-14T17:53:19.826Z,2.83
2019-05-14T17:55:43.202Z,2.47
2019-05-14T17:57:45.046Z,2.40
2019-05-14T17:59:49.570Z,2.43
2019-05-14T18:01:58.061Z,2.20
2019-05-14T18:04:06.100Z,2.50
2019-05-14T18:06:12.315Z,2.37
2019-05-14T18:08:22.814Z,2.63
2019-05-14T18:10:31.283Z,2.77
2019-05-14T18:12:48.135Z,2.40
2019-05-14T18:14:55.024Z,2.43
2019-05-14T18:17:04.582Z,2.47
2019-05-14T18:19:12.289Z,2.47
2019-05-14T18:21:21.049Z,2.43
2019-05-14T18:23:28.962Z,2.63
2019-05-14T18:25:38.905Z,2.50
2019-05-14T18:27:46.181Z,2.47
2019-05-14T18:29:52.419Z,2.57
2019-05-14T18:32:01.303Z,2.73
2019-05-14T18:34:07.504Z,2.33
2019-05-14T18:36:18.834Z,2.30
2019-05-14T18:38:24.934Z,2.57
2019-05-14T18:40:35.649Z,2.77
2019-05-14T18:42:48.051Z,2.70
2019-05-14T18:44:59.037Z,2.80
2019-05-14T18:47:05.457Z,2.97
2019-05-14T18:49:13.868Z,2.57
2019-05-14T18:51:21.607Z,3.40
2019-05-14T18:53:29.958Z,3.07
2019-05-14T18:55:39.833Z,2.57
2019-05-14T18:57:45.808Z,2.83
2019-05-14T18:59:52.600Z,2.90
2019-05-14T19:01:59.848Z,3.07
2019-05-14T19:04:08.108Z,3.37
2019-05-14T19:06:15.466Z,2.77
2019-05-14T19:08:23.261Z,2.83
2019-05-14T19:10:30.747Z,3.00
2019-05-14T19:12:38.720Z,3.03
2019-05-14T19:14:49.270Z,2.80
2019-05-14T19:16:58.448Z,2.60
2019-05-14T19:19:05.348Z,2.70
2019-05-14T19:21:13.095Z,3.23
2019-05-14T19:23:21.275Z,2.80
2019-05-14T19:25:27.950Z,3.47
2019-05-14T19:27:35.386Z,3.03
2019-05-14T19:29:42.860Z,2.80
2019-05-14T19:31:50.094Z,2.60
2019-05-14T19:33:55.872Z,2.33
2019-05-14T19:36:02.242Z,2.80
2019-05-14T19:38:09.299Z,2.80
2019-05-14T19:40:18.735Z,2.90
2019-05-14T19:42:25.196Z,3.00
2019-05-14T19:44:31.682Z,2.70
2019-05-14T19:46:38.637Z,3.10
2019-05-14T19:48:48.216Z,2.60
2019-05-14T19:50:54.732Z,2.77
2019-05-14T19:53:02.561Z,2.60
2019-05-14T19:55:12.150Z,2.53
2019-05-14T19:57:18.749Z,3.10
2019-05-14T19:59:29.050Z,2.60
2019-05-14T20:01:38.518Z,2.70
2019-05-14T20:03:47.864Z,2.47
2019-05-14T20:05:54.060Z,2.43
2019-05-14T20:08:03.190Z,2.83
2019-05-14T20:10:10.755Z,2.43
2019-05-14T20:12:18.295Z,2.77
2019-05-14T20:14:24.554Z,2.30
2019-05-14T20:16:31.710Z,2.53
2019-05-14T20:18:38.990Z,2.30
2019-05-14T20:20:49.107Z,2.47
2019-05-14T20:22:58.763Z,2.50
2019-05-14T20:25:05.355Z,2.47
2019-05-14T20:27:12.426Z,2.40
2019-05-14T20:29:19.483Z,2.30
2019-05-14T20:31:29.799Z,2.30
2019-05-14T20:33:38.030Z,2.60
2019-05-14T20:35:48.468Z,2.33
2019-05-14T20:38:00.833Z,2.50
2019-05-14T20:40:10.896Z,2.60
2019-05-14T20:42:18.706Z,2.43
2019-05-14T20:44:27.965Z,2.83
2019-05-14T20:46:40.171Z,2.67
2019-05-14T20:48:52.625Z,2.77
2019-05-14T20:51:01.962Z,2.70
2019-05-14T20:53:11.693Z,2.60
2019-05-14T20:55:23.864Z,2.60
2019-05-14T20:57:34.153Z,2.47
2019-05-14T20:59:43.421Z,2.70
2019-05-14T21:02:00.177Z,2.77
2019-05-14T21:04:09.180Z,2.53
2019-05-14T21:06:18.775Z,2.73
2019-05-14T21:08:28.225Z,2.97
2019-05-14T21:10:33.746Z,2.50
2019-05-14T21:12:44.617Z,2.80
2019-05-14T21:14:50.853Z,3.00
2019-05-14T21:16:56.998Z,2.70
2019-05-14T21:19:03.344Z,2.70
2019-05-14T21:21:11.616Z,2.40
2019-05-14T21:23:19.154Z,2.77
2019-05-14T21:25:29.314Z,2.50
2019-05-14T21:27:43.860Z,2.50
2019-05-14T21:29:48.744Z,2.77
2019-05-14T21:31:55.954Z,2.67
2019-05-14T21:34:04.726Z,2.70
2019-05-14T21:36:12.495Z,2.80
2019-05-14T21:38:20.361Z,2.50
2019-05-14T21:40:32.099Z,2.73
2019-05-14T21:42:38.133Z,2.80
2019-05-14T21:44:44.357Z,2.50
2019-05-14T21:46:50.165Z,2.83
2019-05-14T21:48:58.542Z,2.63
2019-05-14T21:51:03.603Z,2.70
2019-05-14T21:53:09.640Z,3.53
2019-05-14T21:55:19.665Z,2.80
2019-05-14T21:57:24.381Z,3.00
2019-05-14T21:59:31.848Z,2.90
2019-05-14T22:01:39.307Z,2.40
2019-05-14T22:03:45.767Z,3.00
2019-05-14T22:05:51.517Z,3.33
2019-05-14T22:07:59.793Z,2.83
2019-05-14T22:10:06.219Z,2.47
2019-05-14T22:12:11.352Z,3.33
2019-05-14T22:14:18.808Z,2.80
2019-05-14T22:16:28.095Z,2.80
2019-05-14T22:18:35.250Z,3.03
2019-05-14T22:20:40.210Z,2.73
2019-05-14T22:22:45.295Z,3.03
2019-05-14T22:24:51.499Z,3.00
2019-05-14T22:26:58.311Z,2.63
2019-05-14T22:29:05.387Z,2.80
2019-05-14T22:31:11.589Z,2.57
2019-05-14T22:33:19.070Z,2.67
2019-05-14T22:35:25.250Z,2.90
2019-05-14T22:37:32.643Z,2.80
2019-05-14T22:39:41.925Z,2.73
2019-05-14T22:41:49.432Z,2.60
2019-05-14T22:43:57.574Z,2.73
2019-05-14T22:46:02.277Z,3.00
2019-05-14T22:48:10.127Z,3.23
2019-05-14T22:50:18.440Z,3.17
2019-05-14T22:52:24.796Z,2.80
2019-05-14T22:54:31.651Z,3.10
2019-05-14T22:56:39.004Z,2.83
2019-05-14T22:58:48.644Z,3.00
2019-05-14T23:01:06.904Z,2.87
2019-05-14T23:03:05.452Z,3.00
2019-05-14T23:05:11.531Z,2.90
2019-05-14T23:07:18.974Z,3.20
2019-05-14T23:09:25.735Z,3.00
2019-05-14T23:11:31.839Z,3.00
2019-05-14T23:13:39.201Z,3.07
2019-05-14T23:15:47.997Z,3.27
2019-05-14T23:17:54.386Z,2.77
2019-05-14T23:20:01.978Z,3.27
2019-05-14T23:22:07.390Z,2.90
2019-05-14T23:24:14.489Z,3.17
2019-05-14T23:26:20.771Z,2.87
2019-05-14T23:28:39.526Z,2.43
2019-05-14T23:30:38.500Z,2.80
2019-05-14T23:32:44.489Z,3.10
2019-05-14T23:34:49.763Z,3.20
2019-05-14T23:36:58.639Z,3.20
2019-05-14T23:39:05.179Z,3.20
2019-05-14T23:41:11.094Z,2.80
2019-05-14T23:43:19.285Z,2.80
2019-05-14T23:45:25.476Z,3.27
2019-05-14T23:47:31.256Z,2.40
2019-05-14T23:49:38.959Z,2.80
2019-05-14T23:51:45.124Z,2.80
2019-05-14T23:53:50.985Z,3.30
2019-05-14T23:55:57.752Z,3.20
2019-05-14T23:58:05.101Z,2.63
